sensor_id;sensor_type;location;lat;lon;timestamp;pressure;altitude;pressure_sealevel;temperature;humidity
76201;BME280;64981;52.930;9.266;2024-01-25T00:00:20;101903.50;;;7.35;70.60
76201;BME280;64981;52.930;9.266;2024-01-25T00:02:46;101902.13;;;7.53;70.27
76201;BME280;64981;52.930;9.266;2024-01-25T00:05:12;101902.50;;;7.60;69.81
76201;BME280;64981;52.930;9.266;2024-01-25T00:07:47;101909.41;;;7.50;70.37
76201;BME280;64981;52.930;9.266;2024-01-25T00:10:15;101902.03;;;7.55;70.08
76201;BME280;64981;52.930;9.266;2024-01-25T00:12:41;101905.47;;;7.55;70.26
76201;BME280;64981;52.930;9.266;2024-01-25T00:15:09;101910.09;;;7.41;70.75
76201;BME280;64981;52.930;9.266;2024-01-25T00:17:34;101904.03;;;7.51;70.23
76201;BME280;64981;52.930;9.266;2024-01-25T00:20:00;101908.63;;;7.60;69.76
76201;BME280;64981;52.930;9.266;2024-01-25T00:22:25;101912.81;;;7.74;69.43
76201;BME280;64981;52.930;9.266;2024-01-25T00:24:51;101911.34;;;7.59;69.73
76201;BME280;64981;52.930;9.266;2024-01-25T00:27:17;101919.00;;;7.62;70.10
76201;BME280;64981;52.930;9.266;2024-01-25T00:29:42;101915.44;;;7.74;69.41
76201;BME280;64981;52.930;9.266;2024-01-25T00:32:09;101913.56;;;7.76;69.32
76201;BME280;64981;52.930;9.266;2024-01-25T00:34:34;101910.94;;;7.76;69.35
76201;BME280;64981;52.930;9.266;2024-01-25T00:37:00;101908.31;;;7.87;68.98
76201;BME280;64981;52.930;9.266;2024-01-25T00:39:26;101901.63;;;7.83;68.89
76201;BME280;64981;52.930;9.266;2024-01-25T00:42:00;101899.03;;;7.59;69.79
76201;BME280;64981;52.930;9.266;2024-01-25T00:44:28;101906.38;;;7.78;69.25
76201;BME280;64981;52.930;9.266;2024-01-25T00:46:54;101915.44;;;7.74;69.35
76201;BME280;64981;52.930;9.266;2024-01-25T00:49:20;101915.44;;;7.74;69.31
76201;BME280;64981;52.930;9.266;2024-01-25T00:51:47;101919.44;;;7.80;69.34
76201;BME280;64981;52.930;9.266;2024-01-25T00:54:14;101927.31;;;7.80;69.43
76201;BME280;64981;52.930;9.266;2024-01-25T00:56:40;101930.91;;;7.79;69.20
76201;BME280;64981;52.930;9.266;2024-01-25T00:59:06;101931.47;;;7.71;69.48
76201;BME280;64981;52.930;9.266;2024-01-25T01:01:32;101929.34;;;7.76;69.58
76201;BME280;64981;52.930;9.266;2024-01-25T01:03:59;101930.25;;;7.64;69.67
76201;BME280;64981;52.930;9.266;2024-01-25T01:06:25;101943.09;;;7.80;69.60
76201;BME280;64981;52.930;9.266;2024-01-25T01:08:51;101937.94;;;7.78;69.25
76201;BME280;64981;52.930;9.266;2024-01-25T01:11:18;101941.03;;;7.72;69.60
76201;BME280;64981;52.930;9.266;2024-01-25T01:13:44;101952.34;;;7.61;69.56
76201;BME280;64981;52.930;9.266;2024-01-25T01:16:09;101940.56;;;7.78;68.99
76201;BME280;64981;52.930;9.266;2024-01-25T01:18:35;101942.97;;;7.70;69.59
76201;BME280;64981;52.930;9.266;2024-01-25T01:21:01;101946.34;;;7.83;69.13
76201;BME280;64981;52.930;9.266;2024-01-25T01:23:26;101947.84;;;7.75;69.39
76201;BME280;64981;52.930;9.266;2024-01-25T01:25:52;101930.56;;;7.83;69.17
76201;BME280;64981;52.930;9.266;2024-01-25T01:28:17;101938.22;;;7.86;69.14
76201;BME280;64981;52.930;9.266;2024-01-25T01:30:43;101930.53;;;7.72;69.21
76201;BME280;64981;52.930;9.266;2024-01-25T01:33:09;101933.06;;;7.74;69.46
76201;BME280;64981;52.930;9.266;2024-01-25T01:35:35;101926.19;;;7.60;69.69
76201;BME280;64981;52.930;9.266;2024-01-25T01:38:00;101928.78;;;7.49;70.13
76201;BME280;64981;52.930;9.266;2024-01-25T01:40:26;101927.69;;;7.28;71.17
76201;BME280;64981;52.930;9.266;2024-01-25T01:42:51;101942.34;;;7.43;70.76
76201;BME280;64981;52.930;9.266;2024-01-25T01:45:17;101934.31;;;7.33;70.91
76201;BME280;64981;52.930;9.266;2024-01-25T01:47:43;101942.91;;;7.59;70.00
76201;BME280;64981;52.930;9.266;2024-01-25T01:50:09;101953.03;;;7.52;70.26
76201;BME280;64981;52.930;9.266;2024-01-25T01:52:36;101944.91;;;7.55;70.32
76201;BME280;64981;52.930;9.266;2024-01-25T01:55:03;101942.22;;;7.33;70.96
76201;BME280;64981;52.930;9.266;2024-01-25T01:57:29;101947.00;;;7.39;71.15
76201;BME280;64981;52.930;9.266;2024-01-25T01:59:54;101956.47;;;7.42;71.22
76201;BME280;64981;52.930;9.266;2024-01-25T02:02:21;101948.75;;;7.51;70.39
76201;BME280;64981;52.930;9.266;2024-01-25T02:04:46;101958.47;;;7.38;70.94
76201;BME280;64981;52.930;9.266;2024-01-25T02:07:12;101946.88;;;7.41;70.99
76201;BME280;64981;52.930;9.266;2024-01-25T02:09:39;101949.91;;;7.47;70.75
76201;BME280;64981;52.930;9.266;2024-01-25T02:12:05;101953.22;;;7.38;71.26
76201;BME280;64981;52.930;9.266;2024-01-25T02:14:30;101949.50;;;7.41;71.06
76201;BME280;64981;52.930;9.266;2024-01-25T02:16:56;101949.44;;;7.53;70.89
76201;BME280;64981;52.930;9.266;2024-01-25T02:19:22;101953.81;;;7.42;71.43
76201;BME280;64981;52.930;9.266;2024-01-25T02:21:50;101954.53;;;7.44;71.10
76201;BME280;64981;52.930;9.266;2024-01-25T02:24:16;101962.88;;;7.38;71.34
76201;BME280;64981;52.930;9.266;2024-01-25T02:26:42;101968.53;;;7.44;70.97
76201;BME280;64981;52.930;9.266;2024-01-25T02:29:07;101962.34;;;7.45;70.89
76201;BME280;64981;52.930;9.266;2024-01-25T02:31:35;101979.28;;;7.41;71.34
76201;BME280;64981;52.930;9.266;2024-01-25T02:34:00;101966.13;;;7.41;70.99
76201;BME280;64981;52.930;9.266;2024-01-25T02:36:26;101968.06;;;7.50;70.73
76201;BME280;64981;52.930;9.266;2024-01-25T02:38:51;101978.88;;;7.35;71.18
76201;BME280;64981;52.930;9.266;2024-01-25T02:41:17;101977.72;;;7.39;71.39
76201;BME280;64981;52.930;9.266;2024-01-25T02:43:42;101976.50;;;7.43;71.33
76201;BME280;64981;52.930;9.266;2024-01-25T02:46:08;101993.69;;;7.36;71.52
76201;BME280;64981;52.930;9.266;2024-01-25T02:48:34;101997.03;;;7.38;71.51
76201;BME280;64981;52.930;9.266;2024-01-25T02:51:00;102006.41;;;7.42;71.34
76201;BME280;64981;52.930;9.266;2024-01-25T02:53:26;102013.75;;;7.37;71.64
76201;BME280;64981;52.930;9.266;2024-01-25T02:55:51;101995.19;;;7.27;71.64
76201;BME280;64981;52.930;9.266;2024-01-25T02:58:17;102002.59;;;7.09;72.42
76201;BME280;64981;52.930;9.266;2024-01-25T03:00:42;102000.03;;;7.33;71.57
76201;BME280;64981;52.930;9.266;2024-01-25T03:03:08;102007.69;;;7.36;71.68
76201;BME280;64981;52.930;9.266;2024-01-25T03:05:33;102005.38;;;7.32;71.75
76201;BME280;64981;52.930;9.266;2024-01-25T03:08:00;102009.09;;;7.17;71.97
76201;BME280;64981;52.930;9.266;2024-01-25T03:10:26;102003.31;;;7.11;72.53
76201;BME280;64981;52.930;9.266;2024-01-25T03:12:51;102006.13;;;7.21;72.28
76201;BME280;64981;52.930;9.266;2024-01-25T03:15:17;102018.88;;;7.15;72.50
76201;BME280;64981;52.930;9.266;2024-01-25T03:17:43;102026.16;;;6.98;73.35
76201;BME280;64981;52.930;9.266;2024-01-25T03:20:09;102023.31;;;7.14;72.73
76201;BME280;64981;52.930;9.266;2024-01-25T03:22:35;102028.22;;;7.19;72.86
76201;BME280;64981;52.930;9.266;2024-01-25T03:25:01;102029.47;;;7.26;72.23
76201;BME280;64981;52.930;9.266;2024-01-25T03:27:26;102021.91;;;7.21;72.39
76201;BME280;64981;52.930;9.266;2024-01-25T03:29:52;102047.19;;;6.98;73.62
76201;BME280;64981;52.930;9.266;2024-01-25T03:32:18;102046.56;;;6.95;73.47
76201;BME280;64981;52.930;9.266;2024-01-25T03:34:43;102042.72;;;7.11;73.06
76201;BME280;64981;52.930;9.266;2024-01-25T03:37:09;102044.97;;;7.05;73.43
76201;BME280;64981;52.930;9.266;2024-01-25T03:39:34;102049.25;;;7.06;73.29
76201;BME280;64981;52.930;9.266;2024-01-25T03:42:00;102054.28;;;7.09;73.24
76201;BME280;64981;52.930;9.266;2024-01-25T03:44:26;102052.72;;;7.06;73.52
76201;BME280;64981;52.930;9.266;2024-01-25T03:46:51;102054.94;;;7.00;73.35
76201;BME280;64981;52.930;9.266;2024-01-25T03:49:17;102048.75;;;7.01;73.34
76201;BME280;64981;52.930;9.266;2024-01-25T03:51:42;102056.66;;;6.88;73.58
76201;BME280;64981;52.930;9.266;2024-01-25T03:54:08;102065.66;;;7.09;73.21
76201;BME280;64981;52.930;9.266;2024-01-25T03:56:33;102060.00;;;6.90;73.44
76201;BME280;64981;52.930;9.266;2024-01-25T03:58:59;102068.63;;;6.92;73.51
76201;BME280;64981;52.930;9.266;2024-01-25T04:01:25;102067.16;;;6.88;73.86
76201;BME280;64981;52.930;9.266;2024-01-25T04:03:50;102075.53;;;6.93;73.77
76201;BME280;64981;52.930;9.266;2024-01-25T04:06:16;102073.03;;;6.79;74.16
76201;BME280;64981;52.930;9.266;2024-01-25T04:08:41;102070.88;;;6.72;74.67
76201;BME280;64981;52.930;9.266;2024-01-25T04:11:07;102061.97;;;6.74;74.39
76201;BME280;64981;52.930;9.266;2024-01-25T04:13:35;102067.44;;;6.84;74.31
76201;BME280;64981;52.930;9.266;2024-01-25T04:16:01;102060.09;;;6.76;74.75
76201;BME280;64981;52.930;9.266;2024-01-25T04:18:26;102062.91;;;6.61;75.23
76201;BME280;64981;52.930;9.266;2024-01-25T04:20:52;102075.88;;;7.01;73.79
76201;BME280;64981;52.930;9.266;2024-01-25T04:23:17;102075.66;;;6.92;74.14
76201;BME280;64981;52.930;9.266;2024-01-25T04:25:43;102078.28;;;6.92;73.70
76201;BME280;64981;52.930;9.266;2024-01-25T04:28:09;102065.56;;;6.73;74.37
76201;BME280;64981;52.930;9.266;2024-01-25T04:30:35;102063.59;;;6.89;73.92
76201;BME280;64981;52.930;9.266;2024-01-25T04:33:00;102068.63;;;6.80;74.24
76201;BME280;64981;52.930;9.266;2024-01-25T04:35:27;102070.91;;;6.84;74.31
76201;BME280;64981;52.930;9.266;2024-01-25T04:37:52;102074.06;;;6.77;74.37
76201;BME280;64981;52.930;9.266;2024-01-25T04:40:18;102090.88;;;6.87;74.43
76201;BME280;64981;52.930;9.266;2024-01-25T04:42:44;102078.81;;;6.84;73.62
76201;BME280;64981;52.930;9.266;2024-01-25T04:45:10;102078.25;;;6.67;74.84
76201;BME280;64981;52.930;9.266;2024-01-25T04:47:38;102078.81;;;6.84;73.63
76201;BME280;64981;52.930;9.266;2024-01-25T04:50:04;102087.09;;;6.78;74.15
76201;BME280;64981;52.930;9.266;2024-01-25T04:52:30;102097.13;;;6.59;74.87
76201;BME280;64981;52.930;9.266;2024-01-25T04:54:55;102097.91;;;6.61;74.99
76201;BME280;64981;52.930;9.266;2024-01-25T04:57:21;102088.09;;;6.50;75.47
76201;BME280;64981;52.930;9.266;2024-01-25T04:59:47;102100.59;;;6.59;75.00
76201;BME280;64981;52.930;9.266;2024-01-25T05:02:13;102112.09;;;6.84;74.43
76201;BME280;64981;52.930;9.266;2024-01-25T05:04:38;102111.38;;;6.82;74.21
76201;BME280;64981;52.930;9.266;2024-01-25T05:07:04;102109.47;;;6.84;73.86
76201;BME280;64981;52.930;9.266;2024-01-25T05:09:30;102114.31;;;6.90;74.29
76201;BME280;64981;52.930;9.266;2024-01-25T05:11:55;102109.22;;;6.74;74.68
76201;BME280;64981;52.930;9.266;2024-01-25T05:14:24;102106.75;;;6.85;74.51
76201;BME280;64981;52.930;9.266;2024-01-25T05:16:50;102108.97;;;6.79;74.72
76201;BME280;64981;52.930;9.266;2024-01-25T05:19:15;102107.47;;;6.87;74.17
76201;BME280;64981;52.930;9.266;2024-01-25T05:21:42;102098.59;;;6.50;75.42
76201;BME280;64981;52.930;9.266;2024-01-25T05:24:07;102106.63;;;6.87;74.70
76201;BME280;64981;52.930;9.266;2024-01-25T05:26:35;102093.38;;;6.76;74.54
76201;BME280;64981;52.930;9.266;2024-01-25T05:29:00;102110.66;;;6.92;73.84
76201;BME280;64981;52.930;9.266;2024-01-25T05:31:26;102112.84;;;6.86;74.52
76201;BME280;64981;52.930;9.266;2024-01-25T05:33:52;102118.19;;;6.84;74.29
76201;BME280;64981;52.930;9.266;2024-01-25T05:36:17;102116.84;;;6.79;74.67
76201;BME280;64981;52.930;9.266;2024-01-25T05:38:43;102112.00;;;6.98;73.80
76201;BME280;64981;52.930;9.266;2024-01-25T05:41:08;102122.59;;;6.84;74.50
76201;BME280;64981;52.930;9.266;2024-01-25T05:43:34;102124.94;;;6.88;74.56
76201;BME280;64981;52.930;9.266;2024-01-25T05:46:00;102125.34;;;7.07;73.68
76201;BME280;64981;52.930;9.266;2024-01-25T05:48:25;102133.22;;;6.82;74.16
76201;BME280;64981;52.930;9.266;2024-01-25T05:50:51;102130.38;;;6.85;74.12
76201;BME280;64981;52.930;9.266;2024-01-25T05:53:17;102146.88;;;6.87;73.69
76201;BME280;64981;52.930;9.266;2024-01-25T05:55:45;102143.78;;;6.68;74.70
76201;BME280;64981;52.930;9.266;2024-01-25T05:58:10;102148.28;;;6.66;74.88
76201;BME280;64981;52.930;9.266;2024-01-25T06:00:36;102150.69;;;6.56;75.34
76201;BME280;64981;52.930;9.266;2024-01-25T06:03:02;102156.56;;;6.60;75.19
76201;BME280;64981;52.930;9.266;2024-01-25T06:05:27;102168.03;;;6.72;75.28
76201;BME280;64981;52.930;9.266;2024-01-25T06:07:53;102162.53;;;6.89;74.29
76201;BME280;64981;52.930;9.266;2024-01-25T06:10:18;102181.88;;;6.88;74.51
76201;BME280;64981;52.930;9.266;2024-01-25T06:12:44;102183.00;;;6.84;74.24
76201;BME280;64981;52.930;9.266;2024-01-25T06:15:10;102180.13;;;6.74;74.61
76201;BME280;64981;52.930;9.266;2024-01-25T06:17:35;102193.72;;;6.81;74.49
76201;BME280;64981;52.930;9.266;2024-01-25T06:20:01;102190.59;;;6.88;74.30
76201;BME280;64981;52.930;9.266;2024-01-25T06:22:28;102200.16;;;6.89;74.36
76201;BME280;64981;52.930;9.266;2024-01-25T06:24:53;102203.16;;;6.83;74.60
76201;BME280;64981;52.930;9.266;2024-01-25T06:27:19;102199.34;;;6.75;74.84
76201;BME280;64981;52.930;9.266;2024-01-25T06:29:44;102205.84;;;6.69;75.00
76201;BME280;64981;52.930;9.266;2024-01-25T06:32:10;102209.13;;;6.73;74.91
76201;BME280;64981;52.930;9.266;2024-01-25T06:34:36;102208.06;;;6.75;74.81
76201;BME280;64981;52.930;9.266;2024-01-25T06:37:01;102208.53;;;6.82;74.37
76201;BME280;64981;52.930;9.266;2024-01-25T06:39:27;102207.22;;;6.75;74.88
76201;BME280;64981;52.930;9.266;2024-01-25T06:41:53;102214.88;;;6.65;75.27
76201;BME280;64981;52.930;9.266;2024-01-25T06:44:18;102220.00;;;6.54;75.89
76201;BME280;64981;52.930;9.266;2024-01-25T06:46:47;102221.91;;;6.65;75.36
76201;BME280;64981;52.930;9.266;2024-01-25T06:49:19;102226.53;;;6.61;75.64
76201;BME280;64981;52.930;9.266;2024-01-25T06:51:44;102230.97;;;6.73;75.16
76201;BME280;64981;52.930;9.266;2024-01-25T06:54:10;102227.09;;;6.52;75.84
76201;BME280;64981;52.930;9.266;2024-01-25T06:56:35;102228.25;;;6.48;76.46
76201;BME280;64981;52.930;9.266;2024-01-25T06:59:01;102225.03;;;6.57;75.86
76201;BME280;64981;52.930;9.266;2024-01-25T07:01:27;102231.63;;;6.50;76.52
76201;BME280;64981;52.930;9.266;2024-01-25T07:03:53;102233.97;;;6.54;76.17
76201;BME280;64981;52.930;9.266;2024-01-25T07:06:18;102226.91;;;6.55;76.36
76201;BME280;64981;52.930;9.266;2024-01-25T07:08:45;102230.84;;;6.21;77.31
76201;BME280;64981;52.930;9.266;2024-01-25T07:11:11;102231.28;;;6.42;76.51
76201;BME280;64981;52.930;9.266;2024-01-25T07:13:36;102247.97;;;6.41;76.86
76201;BME280;64981;52.930;9.266;2024-01-25T07:16:02;102252.34;;;6.54;76.29
76201;BME280;64981;52.930;9.266;2024-01-25T07:18:28;102255.78;;;6.55;76.07
76201;BME280;64981;52.930;9.266;2024-01-25T07:20:54;102253.00;;;6.44;76.70
76201;BME280;64981;52.930;9.266;2024-01-25T07:23:21;102242.13;;;6.50;76.76
76201;BME280;64981;52.930;9.266;2024-01-25T07:25:47;102248.22;;;6.50;77.77
76201;BME280;64981;52.930;9.266;2024-01-25T07:28:13;102252.53;;;6.78;77.27
76201;BME280;64981;52.930;9.266;2024-01-25T07:30:38;102256.69;;;6.95;75.61
76201;BME280;64981;52.930;9.266;2024-01-25T07:33:04;102257.84;;;7.03;75.59
76201;BME280;64981;52.930;9.266;2024-01-25T07:35:30;102246.63;;;7.01;75.12
76201;BME280;64981;52.930;9.266;2024-01-25T07:37:55;102262.41;;;7.27;75.51
76201;BME280;64981;52.930;9.266;2024-01-25T07:40:21;102251.06;;;7.39;73.93
76201;BME280;64981;52.930;9.266;2024-01-25T07:42:47;102262.22;;;7.30;73.69
76201;BME280;64981;52.930;9.266;2024-01-25T07:45:12;102268.84;;;7.35;73.68
76201;BME280;64981;52.930;9.266;2024-01-25T07:47:41;102267.78;;;7.25;73.84
76201;BME280;64981;52.930;9.266;2024-01-25T07:50:07;102269.22;;;7.17;74.35
76201;BME280;64981;52.930;9.266;2024-01-25T07:52:33;102276.38;;;7.27;73.66
76201;BME280;64981;52.930;9.266;2024-01-25T07:54:59;102274.03;;;6.97;74.97
76201;BME280;64981;52.930;9.266;2024-01-25T07:57:25;102275.91;;;6.95;75.05
76201;BME280;64981;52.930;9.266;2024-01-25T07:59:50;102277.72;;;6.95;75.32
76201;BME280;64981;52.930;9.266;2024-01-25T08:02:16;102287.91;;;7.12;74.47
76201;BME280;64981;52.930;9.266;2024-01-25T08:04:42;102295.06;;;7.10;74.72
76201;BME280;64981;52.930;9.266;2024-01-25T08:07:08;102290.72;;;6.96;75.08
76201;BME280;64981;52.930;9.266;2024-01-25T08:09:34;102284.09;;;6.91;75.39
76201;BME280;64981;52.930;9.266;2024-01-25T08:11:59;102292.75;;;7.05;74.70
76201;BME280;64981;52.930;9.266;2024-01-25T08:14:25;102293.38;;;7.09;74.87
76201;BME280;64981;52.930;9.266;2024-01-25T08:16:51;102307.78;;;7.03;75.07
76201;BME280;64981;52.930;9.266;2024-01-25T08:19:16;102312.59;;;6.97;75.64
76201;BME280;64981;52.930;9.266;2024-01-25T08:21:42;102313.56;;;7.08;74.87
76201;BME280;64981;52.930;9.266;2024-01-25T08:24:08;102311.25;;;7.04;75.03
76201;BME280;64981;52.930;9.266;2024-01-25T08:26:34;102315.88;;;7.13;74.85
76201;BME280;64981;52.930;9.266;2024-01-25T08:29:00;102322.03;;;7.26;74.28
76201;BME280;64981;52.930;9.266;2024-01-25T08:31:25;102307.25;;;6.98;74.99
76201;BME280;64981;52.930;9.266;2024-01-25T08:33:51;102313.56;;;7.08;74.88
76201;BME280;64981;52.930;9.266;2024-01-25T08:36:17;102328.19;;;7.13;74.95
76201;BME280;64981;52.930;9.266;2024-01-25T08:38:42;102322.81;;;7.01;75.41
76201;BME280;64981;52.930;9.266;2024-01-25T08:41:08;102322.06;;;7.12;74.70
76201;BME280;64981;52.930;9.266;2024-01-25T08:43:34;102316.09;;;7.10;74.65
76201;BME280;64981;52.930;9.266;2024-01-25T08:46:00;102324.09;;;7.21;74.53
76201;BME280;64981;52.930;9.266;2024-01-25T08:48:25;102324.75;;;7.25;74.25
76201;BME280;64981;52.930;9.266;2024-01-25T08:50:51;102330.00;;;7.25;74.06
76201;BME280;64981;52.930;9.266;2024-01-25T08:53:19;102324.94;;;7.22;74.12
76201;BME280;64981;52.930;9.266;2024-01-25T08:55:47;102332.31;;;7.29;74.08
76201;BME280;64981;52.930;9.266;2024-01-25T08:58:13;102323.91;;;7.37;73.86
76201;BME280;64981;52.930;9.266;2024-01-25T09:00:38;102317.06;;;7.22;74.52
76201;BME280;64981;52.930;9.266;2024-01-25T09:03:04;102328.56;;;7.33;73.68
76201;BME280;64981;52.930;9.266;2024-01-25T09:05:29;102331.59;;;7.40;73.93
76201;BME280;64981;52.930;9.266;2024-01-25T09:07:56;102335.72;;;7.44;73.76
76201;BME280;64981;52.930;9.266;2024-01-25T09:10:22;102342.56;;;7.59;73.04
76201;BME280;64981;52.930;9.266;2024-01-25T09:12:48;102346.13;;;7.45;73.43
76201;BME280;64981;52.930;9.266;2024-01-25T09:15:14;102347.13;;;7.30;74.14
76201;BME280;64981;52.930;9.266;2024-01-25T09:17:39;102350.13;;;7.51;73.35
76201;BME280;64981;52.930;9.266;2024-01-25T09:20:06;102349.06;;;7.41;73.60
76201;BME280;64981;52.930;9.266;2024-01-25T09:22:32;102354.13;;;7.56;73.18
76201;BME280;64981;52.930;9.266;2024-01-25T09:24:58;102369.00;;;7.70;72.77
76201;BME280;64981;52.930;9.266;2024-01-25T09:27:23;102378.72;;;7.55;72.95
76201;BME280;64981;52.930;9.266;2024-01-25T09:29:49;102368.66;;;7.75;72.40
76201;BME280;64981;52.930;9.266;2024-01-25T09:32:14;102380.38;;;7.83;72.37
76201;BME280;64981;52.930;9.266;2024-01-25T09:34:40;102375.31;;;7.80;72.41
76201;BME280;64981;52.930;9.266;2024-01-25T09:37:05;102367.00;;;7.61;72.79
76201;BME280;64981;52.930;9.266;2024-01-25T09:39:31;102372.53;;;7.56;72.92
76201;BME280;64981;52.930;9.266;2024-01-25T09:41:58;102375.91;;;7.71;72.24
76201;BME280;64981;52.930;9.266;2024-01-25T09:44:24;102376.47;;;7.76;72.38
76201;BME280;64981;52.930;9.266;2024-01-25T09:46:50;102381.72;;;7.76;72.46
76201;BME280;64981;52.930;9.266;2024-01-25T09:49:16;102372.56;;;7.82;72.52
76201;BME280;64981;52.930;9.266;2024-01-25T09:51:43;102382.13;;;7.70;72.09
76201;BME280;64981;52.930;9.266;2024-01-25T09:54:08;102369.44;;;7.89;71.77
76201;BME280;64981;52.930;9.266;2024-01-25T09:56:35;102375.28;;;8.05;70.98
76201;BME280;64981;52.930;9.266;2024-01-25T09:59:01;102386.44;;;8.09;71.27
76201;BME280;64981;52.930;9.266;2024-01-25T10:01:27;102394.78;;;8.03;71.24
76201;BME280;64981;52.930;9.266;2024-01-25T10:03:53;102396.75;;;8.37;69.85
76201;BME280;64981;52.930;9.266;2024-01-25T10:06:22;102399.38;;;8.37;69.75
76201;BME280;64981;52.930;9.266;2024-01-25T10:08:48;102404.31;;;8.54;69.36
76201;BME280;64981;52.930;9.266;2024-01-25T10:11:15;102391.25;;;8.53;69.13
76201;BME280;64981;52.930;9.266;2024-01-25T10:13:42;102382.81;;;8.60;68.69
76201;BME280;64981;52.930;9.266;2024-01-25T10:16:12;102396.50;;;9.25;67.26
76201;BME280;64981;52.930;9.266;2024-01-25T10:18:40;102396.63;;;9.24;66.45
76201;BME280;64981;52.930;9.266;2024-01-25T10:21:07;102404.72;;;9.34;66.19
76201;BME280;64981;52.930;9.266;2024-01-25T10:23:32;102395.50;;;9.39;65.98
76201;BME280;64981;52.930;9.266;2024-01-25T10:25:58;102405.81;;;9.18;66.24
76201;BME280;64981;52.930;9.266;2024-01-25T10:28:24;102407.88;;;9.50;65.52
76201;BME280;64981;52.930;9.266;2024-01-25T10:30:56;102409.84;;;9.35;65.91
76201;BME280;64981;52.930;9.266;2024-01-25T10:33:24;102398.00;;;9.41;65.48
76201;BME280;64981;52.930;9.266;2024-01-25T10:35:54;102397.63;;;9.34;65.08
76201;BME280;64981;52.930;9.266;2024-01-25T10:38:21;102396.56;;;9.37;65.81
76201;BME280;64981;52.930;9.266;2024-01-25T10:40:49;102391.34;;;9.59;64.97
76201;BME280;64981;52.930;9.266;2024-01-25T10:43:15;102390.91;;;9.65;64.48
76201;BME280;64981;52.930;9.266;2024-01-25T10:45:41;102399.25;;;9.59;65.02
76201;BME280;64981;52.930;9.266;2024-01-25T10:48:07;102406.69;;;9.54;65.15
76201;BME280;64981;52.930;9.266;2024-01-25T10:50:33;102400.78;;;9.85;64.32
76201;BME280;64981;52.930;9.266;2024-01-25T10:53:00;102395.59;;;9.72;64.11
76201;BME280;64981;52.930;9.266;2024-01-25T10:55:28;102399.63;;;9.54;64.96
76201;BME280;64981;52.930;9.266;2024-01-25T10:57:54;102402.03;;;9.57;65.11
76201;BME280;64981;52.930;9.266;2024-01-25T11:00:20;102401.16;;;9.46;65.50
76201;BME280;64981;52.930;9.266;2024-01-25T11:02:46;102408.00;;;9.48;65.61
76201;BME280;64981;52.930;9.266;2024-01-25T11:05:14;102404.38;;;9.14;66.43
76201;BME280;64981;52.930;9.266;2024-01-25T11:07:42;102403.34;;;9.28;66.37
76201;BME280;64981;52.930;9.266;2024-01-25T11:10:14;102397.69;;;9.21;65.97
76201;BME280;64981;52.930;9.266;2024-01-25T11:12:54;102409.75;;;9.13;66.24
76201;BME280;64981;52.930;9.266;2024-01-25T11:15:22;102401.63;;;9.16;66.09
76201;BME280;64981;52.930;9.266;2024-01-25T11:17:56;102411.41;;;9.38;65.39
76201;BME280;64981;52.930;9.266;2024-01-25T11:20:24;102412.44;;;9.00;66.35
76201;BME280;64981;52.930;9.266;2024-01-25T11:23:02;102399.50;;;9.21;65.12
76201;BME280;64981;52.930;9.266;2024-01-25T11:25:30;102404.03;;;9.19;65.63
76201;BME280;64981;52.930;9.266;2024-01-25T11:27:56;102403.34;;;9.04;66.27
76201;BME280;64981;52.930;9.266;2024-01-25T11:30:22;102402.69;;;9.13;66.52
76201;BME280;64981;52.930;9.266;2024-01-25T11:32:48;102396.34;;;9.40;64.79
76201;BME280;64981;52.930;9.266;2024-01-25T11:35:14;102393.84;;;9.49;65.24
76201;BME280;64981;52.930;9.266;2024-01-25T11:37:43;102387.25;;;9.90;63.68
76201;BME280;64981;52.930;9.266;2024-01-25T11:40:10;102384.59;;;9.90;63.13
76201;BME280;64981;52.930;9.266;2024-01-25T11:42:36;102376.34;;;10.05;63.03
76201;BME280;64981;52.930;9.266;2024-01-25T11:45:03;102375.63;;;10.14;62.10
76201;BME280;64981;52.930;9.266;2024-01-25T11:47:30;102368.25;;;9.85;62.42
76201;BME280;64981;52.930;9.266;2024-01-25T11:49:56;102373.97;;;10.36;62.09
76201;BME280;64981;52.930;9.266;2024-01-25T11:52:21;102369.28;;;10.50;61.65
76201;BME280;64981;52.930;9.266;2024-01-25T11:54:47;102372.25;;;10.68;60.75
76201;BME280;64981;52.930;9.266;2024-01-25T11:57:13;102374.41;;;10.63;60.62
76201;BME280;64981;52.930;9.266;2024-01-25T11:59:39;102375.66;;;10.37;61.42
76201;BME280;64981;52.930;9.266;2024-01-25T12:02:04;102369.50;;;10.47;60.51
76201;BME280;64981;52.930;9.266;2024-01-25T12:04:30;102385.44;;;10.12;61.88
76201;BME280;64981;52.930;9.266;2024-01-25T12:06:56;102386.59;;;10.21;61.48
76201;BME280;64981;52.930;9.266;2024-01-25T12:09:22;102382.16;;;9.75;62.74
76201;BME280;64981;52.930;9.266;2024-01-25T12:11:49;102384.75;;;9.99;62.48
76201;BME280;64981;52.930;9.266;2024-01-25T12:14:16;102379.28;;;9.67;63.29
76201;BME280;64981;52.930;9.266;2024-01-25T12:16:42;102372.34;;;9.89;63.06
76201;BME280;64981;52.930;9.266;2024-01-25T12:19:08;102374.28;;;9.98;62.60
76201;BME280;64981;52.930;9.266;2024-01-25T12:21:34;102363.66;;;10.32;61.87
76201;BME280;64981;52.930;9.266;2024-01-25T12:24:00;102365.88;;;10.59;60.28
76201;BME280;64981;52.930;9.266;2024-01-25T12:26:25;102371.91;;;11.04;59.34
76201;BME280;64981;52.930;9.266;2024-01-25T12:28:51;102368.78;;;11.10;59.65
76201;BME280;64981;52.930;9.266;2024-01-25T12:31:17;102369.09;;;11.49;58.01
76201;BME280;64981;52.930;9.266;2024-01-25T12:33:43;102367.31;;;11.90;56.21
76201;BME280;64981;52.930;9.266;2024-01-25T12:36:09;102371.97;;;12.08;56.36
76201;BME280;64981;52.930;9.266;2024-01-25T12:38:35;102364.47;;;12.13;55.77
76201;BME280;64981;52.930;9.266;2024-01-25T12:41:00;102378.03;;;12.50;54.54
76201;BME280;64981;52.930;9.266;2024-01-25T12:43:26;102372.59;;;12.61;54.13
76201;BME280;64981;52.930;9.266;2024-01-25T12:45:52;102374.31;;;12.71;53.94
76201;BME280;64981;52.930;9.266;2024-01-25T12:48:18;102377.06;;;12.60;53.93
76201;BME280;64981;52.930;9.266;2024-01-25T12:50:44;102386.06;;;12.88;53.45
76201;BME280;64981;52.930;9.266;2024-01-25T12:53:10;102383.44;;;12.88;53.15